Indianapolis International Airport
KIND : now visible

Airfield :











YOU CAN JOIN US ON...

 
LOGIN :

Register | Disclaimer

   EN    FR    IT 

 









Legend :    VFR   Marginal VFR   IFR   Intensive IFR   Very Intensive IFR
Visi :
Ceiling :
>= 8 km
>= 3000ft
5 to 8 km
1000 to 3000 ft
1500m to 5 km
500 to 1000 ft
800 to 1500m
200 to 500 ft
< 800m
< 200 ft
Symbols :   Thunderstorms  Fog  Heavy snow  Heavy precipitations  Wind > 20 kt







- Airport Elevation : 797 ft
- IATA code : IND


KIND - Indianapolis International

CURRENT METAR :
  • 210654Z 04010KT 10SM BKN170 09/04 A3009 RMK AO2 SLP189 T00890044

EXPIRED METARs :
  • 210554Z 04009KT 10SM BKN170 09/04 A3007 RMK AO2 SLP183 T00890044 10133 20083 58016
  • 210454Z 34003KT 10SM BKN200 09/04 A3013 RMK AO2 SLP201 T00890044 401720089

TAF KIND
Valid from the 21 at 06:00 until the 22 at 12:00 UTC


210520Z 2106/2212 01010KT P6SM FEW030 OVC250
FM211200 08010KT P6SM VCSH BKN150
FM211800 10008KT P6SM SCT080
FM220500 11012G20KT P6SM BKN180 WS013/15030KT
FM221100 14011KT P6SM BKN080 WS008/18015KT
KZID FIR / North America



MET'MAP, your aeronautical weather chart ! - Copyright ORBIFLY December 2007 - Disclaimer

ORBIFLY MET'MAP TEAM :

Programming & Development : Alexandra Zaïnal
Concept & Development : Baudouin d'Aumeries
Co-Development & Prog : Marc-Olivier Méhu
Technical & hardware support : Manuel Goepfert

Contact : metmap@orbifly.com




SOURCES & CREDITS :

   NOAA       Earth
Advisory